Platzwetter Flugplatz Wels

Flugwetter Linz LOWL

[Quelle: ADDS]
METAR
LOWL 061320Z 01005KT 310V070 9999 FEW048 24/12 Q1005 NOSIG =
LOWL 061115Z 0612/0712 06004KT 9999 FEW040 BKN060 TX20/0614Z TN14/0701Z TEMPO 0614/0620 30012KT SHRA SCT030CB BKN040 PROB40 TEMPO 0614/0617 4000 TSRA
TAF
LOWL 061115Z 0612/0712 06004KT 9999 FEW040 BKN060 TX20/0614Z TN14/0701Z TEMPO 0614/0620 30012KT SHRA SCT030CB BKN040 PROB40 TEMPO 0614/0617 4000 TSRA =

Flugwetter Salzburg LOWS

[Quelle: ADDS]
METAR
LOWS 061320Z 34010KT 9999 SCT044 BKN048 21/12 Q1005 NOSIG =
LOWS 061115Z 0612/0712 34007KT 9999 FEW040 SCT100 TX22/0612Z TN13/0701Z TEMPO 0614/0619 30015G25KT TSRA FEW020 SCT040CB BKN050 FM061900 15005KT 9999 FEW010 SCT025 BKN040 TEMPO 0619/0621 SHRA TEMPO 0621/0702 -RA BECMG 0707/0709 32007KT TEMPO 0709/0712 SHRA FEW020 SCT040CB BKN050
TAF
LOWS 061115Z 0612/0712 34007KT 9999 FEW040 SCT100 TX22/0612Z TN13/0701Z TEMPO 0614/0619 30015G25KT TSRA FEW020 SCT040CB BKN050 FM061900 15005KT 9999 FEW010 SCT025 BKN040 TEMPO 0619/0621 SHRA TEMPO 0621/0702 -RA BECMG 0707/0709 32007KT TEMPO 0709/0712 SHRA FEW020 SCT040CB BKN050 =

Wind - Verlauf

Windrichtung - Verlauf

Temperatur - Verlauf

Relative Luftfeuchtigkeit - Verlauf

Luftdruck - Verlauf

Cookies erleichtern die Bereitstellung unserer Dienste. Mit der Nutzung unserer Dienste erklären Sie sich damit einverstanden, dass wir Cookies verwenden.
Weitere Informationen Ok